Terminal Aerodrome Forecast
Issued by NWS Wakefield, VA

Home | Current Version | Previous Version | Text Only | Print | Product List | Glossary On
Versions: 1 2 3 4 5 6 7 8 9 10 11 12 13
000
FTUS41 KAKQ 312300
TAFRIC
TAF
KRIC 312338Z 0100/0124 20006KT P6SM SCT050 BKN250
     FM010600 18005KT P6SM VCSH BKN035 OVC150
     FM011400 11007KT P6SM OVC050=

USA.gov is the U.S. government's official web portal to all federal, state and local government web resources and services.